createdAt,value
2023-02-14T00:01:34.104Z,42.67
2023-02-14T00:04:02.241Z,40.57
2023-02-14T00:06:32.674Z,43.13
2023-02-14T00:09:01.636Z,41.60
2023-02-14T00:11:30.493Z,39.43
2023-02-14T00:14:16.391Z,42.70
2023-02-14T00:16:46.132Z,44.17
2023-02-14T00:19:16.647Z,46.00
2023-02-14T00:21:45.071Z,45.43
2023-02-14T00:24:14.978Z,44.50
2023-02-14T00:26:43.195Z,43.30
2023-02-14T00:29:13.627Z,43.40
2023-02-14T00:31:42.381Z,39.30
2023-02-14T00:34:12.527Z,39.27
2023-02-14T00:36:40.790Z,35.93
2023-02-14T00:39:11.531Z,34.87
2023-02-14T00:41:40.111Z,40.37
2023-02-14T00:44:09.117Z,34.30
2023-02-14T00:46:38.355Z,34.53
2023-02-14T00:49:07.314Z,36.80
2023-02-14T00:51:37.055Z,37.07
2023-02-14T00:54:05.511Z,37.00
2023-02-14T00:56:33.919Z,36.87
2023-02-14T00:59:01.907Z,36.13
2023-02-14T01:01:30.211Z,38.43
2023-02-14T01:04:04.491Z,39.47
2023-02-14T01:06:32.771Z,40.60
2023-02-14T01:09:02.224Z,35.67
2023-02-14T01:11:30.666Z,36.10
2023-02-14T01:13:59.764Z,39.20
2023-02-14T01:16:29.683Z,38.57
2023-02-14T01:18:59.835Z,39.13
2023-02-14T01:21:29.993Z,39.33
2023-02-14T01:24:02.004Z,36.23
2023-02-14T01:26:31.377Z,36.30
2023-02-14T01:28:59.393Z,40.97
2023-02-14T01:31:29.478Z,41.10
2023-02-14T01:33:58.433Z,36.80
2023-02-14T01:36:28.724Z,40.03
2023-02-14T01:38:58.616Z,40.40
2023-02-14T01:41:30.477Z,38.80
2023-02-14T01:44:00.815Z,38.33
2023-02-14T01:46:30.615Z,40.20
2023-02-14T01:49:03.201Z,41.50
2023-02-14T01:51:32.948Z,41.07
2023-02-14T01:54:01.990Z,41.27
2023-02-14T01:56:36.776Z,40.87
2023-02-14T01:59:08.792Z,38.93
2023-02-14T02:01:37.021Z,36.97
2023-02-14T02:04:09.454Z,36.43
2023-02-14T02:06:41.344Z,34.60
2023-02-14T02:09:15.653Z,36.30
2023-02-14T02:11:45.723Z,34.70
2023-02-14T02:14:16.115Z,33.60
2023-02-14T02:17:11.235Z,35.80
2023-02-14T02:20:28.489Z,38.37
2023-02-14T02:23:38.714Z,38.03
2023-02-14T02:26:55.267Z,34.70
2023-02-14T02:29:59.266Z,37.13
2023-02-14T02:32:47.236Z,39.83
2023-02-14T02:36:00.909Z,38.00
2023-02-14T02:39:01.312Z,37.33
2023-02-14T02:41:38.104Z,38.10
2023-02-14T02:44:19.139Z,38.50
2023-02-14T02:46:56.259Z,37.90
2023-02-14T02:50:00.121Z,41.50
2023-02-14T02:52:54.589Z,40.97
2023-02-14T02:55:29.647Z,38.70
2023-02-14T02:57:57.079Z,39.97
2023-02-14T03:00:26.120Z,41.17
2023-02-14T03:03:15.136Z,39.47
2023-02-14T03:05:44.326Z,39.90
2023-02-14T03:08:13.812Z,40.10
2023-02-14T03:10:42.093Z,37.50
2023-02-14T03:13:31.744Z,33.10
2023-02-14T03:16:31.936Z,31.37
2023-02-14T03:19:47.432Z,30.87
2023-02-14T03:22:23.186Z,32.63
2023-02-14T03:24:57.699Z,33.57
2023-02-14T03:27:29.542Z,33.87
2023-02-14T03:30:03.956Z,36.37
2023-02-14T03:32:40.561Z,34.80
2023-02-14T03:35:16.240Z,33.13
2023-02-14T03:37:50.066Z,32.63
2023-02-14T03:40:26.210Z,34.73
2023-02-14T03:42:58.606Z,34.73
2023-02-14T03:45:33.318Z,33.33
2023-02-14T03:48:07.515Z,32.77
2023-02-14T03:50:37.606Z,34.50
2023-02-14T03:53:09.220Z,35.60
2023-02-14T03:55:45.553Z,37.00
2023-02-14T03:58:19.829Z,39.00
2023-02-14T04:00:51.784Z,38.20
2023-02-14T04:03:21.849Z,39.00
2023-02-14T04:05:52.419Z,38.87
2023-02-14T04:08:25.129Z,37.50
2023-02-14T04:10:56.932Z,37.33
2023-02-14T04:13:24.965Z,37.30
2023-02-14T04:15:52.899Z,35.97
2023-02-14T04:18:38.546Z,32.63
2023-02-14T04:21:07.144Z,31.20
2023-02-14T04:23:35.276Z,32.63
2023-02-14T04:26:05.241Z,33.33
2023-02-14T04:28:33.758Z,33.37
2023-02-14T04:31:03.940Z,34.83
2023-02-14T04:33:32.246Z,36.63
2023-02-14T04:36:00.329Z,34.67
2023-02-14T04:38:28.369Z,36.63
2023-02-14T04:40:56.511Z,34.60
2023-02-14T04:43:25.922Z,34.53
2023-02-14T04:45:53.974Z,35.97
2023-02-14T04:48:22.029Z,36.30
2023-02-14T04:50:53.767Z,36.80
2023-02-14T04:53:22.462Z,35.00
2023-02-14T04:55:50.796Z,37.03
2023-02-14T04:58:19.193Z,35.20
2023-02-14T05:00:48.807Z,35.03
2023-02-14T05:03:16.769Z,33.20
2023-02-14T05:05:44.694Z,33.60
2023-02-14T05:08:12.635Z,35.43
2023-02-14T05:10:40.754Z,35.77
2023-02-14T05:13:08.875Z,37.27
2023-02-14T05:15:38.544Z,35.97
2023-02-14T05:18:08.162Z,34.50
2023-02-14T05:20:36.151Z,37.03
2023-02-14T05:23:05.424Z,35.93
2023-02-14T05:25:33.356Z,38.53
2023-02-14T05:28:01.359Z,37.37
2023-02-14T05:30:30.547Z,37.53
2023-02-14T05:32:58.709Z,35.87
2023-02-14T05:35:28.366Z,35.03
2023-02-14T05:37:56.384Z,34.43
2023-02-14T05:42:52.734Z,35.73
2023-02-14T05:45:20.698Z,37.43
2023-02-14T05:47:49.413Z,38.03
2023-02-14T05:50:17.928Z,38.23
2023-02-14T05:52:47.472Z,37.93
2023-02-14T05:55:15.542Z,37.30
2023-02-14T05:57:43.884Z,38.97
2023-02-14T06:00:13.254Z,38.20
2023-02-14T06:02:41.428Z,39.17
2023-02-14T06:05:09.910Z,38.87
2023-02-14T06:07:37.993Z,43.67
2023-02-14T06:10:10.061Z,41.93
2023-02-14T06:12:38.160Z,41.53
2023-02-14T06:15:07.445Z,39.77
2023-02-14T06:17:35.915Z,39.30
2023-02-14T06:20:04.120Z,40.13
2023-02-14T06:22:32.484Z,40.87
2023-02-14T06:25:00.837Z,40.93
2023-02-14T06:27:31.728Z,43.87
2023-02-14T06:30:00.172Z,43.13
2023-02-14T06:32:28.287Z,41.90
2023-02-14T06:34:56.708Z,42.37
2023-02-14T06:37:24.966Z,44.37
2023-02-14T06:39:53.152Z,42.70
2023-02-14T06:42:21.810Z,41.23
2023-02-14T06:44:51.688Z,44.87
2023-02-14T06:47:19.700Z,46.27
2023-02-14T06:49:47.868Z,44.43
2023-02-14T06:52:15.992Z,43.37
2023-02-14T06:54:44.174Z,46.40
2023-02-14T06:57:12.190Z,44.87
2023-02-14T06:59:40.445Z,45.00
2023-02-14T07:02:11.673Z,44.57
2023-02-14T07:04:39.714Z,36.07
2023-02-14T07:07:08.103Z,38.00
2023-02-14T07:09:38.811Z,38.20
2023-02-14T07:12:07.183Z,37.87
2023-02-14T07:14:35.186Z,35.20
2023-02-14T07:17:03.230Z,35.10
2023-02-14T07:19:32.895Z,35.07
2023-02-14T07:22:00.908Z,40.00
2023-02-14T07:24:28.857Z,41.30
2023-02-14T07:26:56.837Z,40.20
2023-02-14T07:29:25.072Z,38.50
2023-02-14T07:31:53.160Z,40.07
2023-02-14T07:34:21.398Z,41.87
2023-02-14T07:36:50.913Z,41.70
2023-02-14T07:39:19.140Z,42.43
2023-02-14T07:41:47.170Z,43.93
2023-02-14T07:44:15.642Z,43.70
2023-02-14T07:46:43.786Z,43.77
2023-02-14T07:49:11.947Z,42.97
2023-02-14T07:51:39.828Z,45.07
2023-02-14T07:54:09.694Z,44.03
2023-02-14T07:56:37.819Z,43.63
2023-02-14T07:59:05.883Z,42.07
2023-02-14T08:01:34.018Z,40.00
2023-02-14T08:04:02.005Z,40.93
2023-02-14T08:06:30.687Z,45.60
2023-02-14T08:08:59.081Z,46.87
2023-02-14T08:11:46.368Z,47.30
2023-02-14T08:14:18.081Z,43.97
2023-02-14T08:16:46.059Z,44.67
2023-02-14T08:19:13.953Z,43.77
2023-02-14T08:21:41.824Z,45.70
2023-02-14T08:24:09.723Z,43.33
2023-02-14T08:26:39.453Z,42.77
2023-02-14T08:29:07.378Z,42.93
2023-02-14T08:31:36.805Z,44.23
2023-02-14T08:34:06.215Z,43.80
2023-02-14T08:36:34.890Z,41.87
2023-02-14T08:39:04.099Z,43.20
2023-02-14T08:41:32.392Z,41.43
2023-02-14T08:44:01.773Z,42.83
2023-02-14T08:46:30.605Z,43.83
2023-02-14T08:48:58.718Z,41.87
2023-02-14T08:51:27.049Z,43.20
2023-02-14T08:53:55.934Z,41.97
2023-02-14T08:56:24.919Z,42.27
2023-02-14T08:58:54.572Z,42.87
2023-02-14T09:01:24.036Z,43.53
2023-02-14T09:03:51.993Z,43.77
2023-02-14T09:06:20.324Z,43.20
2023-02-14T09:08:48.313Z,43.07
2023-02-14T09:11:18.810Z,43.33
2023-02-14T09:13:48.445Z,45.03
2023-02-14T09:16:18.322Z,45.07
2023-02-14T09:18:49.230Z,44.00
2023-02-14T09:21:19.041Z,46.63
2023-02-14T09:23:47.168Z,45.37
2023-02-14T09:26:16.439Z,45.43
2023-02-14T09:28:44.790Z,45.20
2023-02-14T09:31:15.317Z,45.93
2023-02-14T09:33:44.503Z,46.83
2023-02-14T09:36:20.117Z,44.97
2023-02-14T09:38:48.455Z,46.97
2023-02-14T09:41:49.168Z,48.77
2023-02-14T09:44:26.293Z,44.90
2023-02-14T09:46:58.230Z,44.20
2023-02-14T09:49:33.102Z,44.07
2023-02-14T09:52:04.287Z,44.57
2023-02-14T09:54:35.428Z,44.77
2023-02-14T09:57:09.889Z,45.00
2023-02-14T09:59:44.573Z,44.73
2023-02-14T10:02:28.048Z,44.03
2023-02-14T10:05:02.738Z,44.53
2023-02-14T10:07:38.989Z,44.13
2023-02-14T10:10:15.448Z,45.10
2023-02-14T10:12:49.608Z,43.43
2023-02-14T10:15:22.850Z,44.50
2023-02-14T10:17:55.073Z,46.08
2023-02-14T10:20:28.273Z,45.85
2023-02-14T10:23:05.104Z,43.63
2023-02-14T10:25:43.764Z,44.77
2023-02-14T10:28:16.908Z,45.90
2023-02-14T10:30:54.386Z,46.13
2023-02-14T10:33:27.414Z,45.20
2023-02-14T10:36:01.914Z,44.47
2023-02-14T10:38:42.006Z,45.63
2023-02-14T10:41:27.133Z,45.70
2023-02-14T10:44:19.540Z,44.78
2023-02-14T10:46:54.284Z,46.75
2023-02-14T10:49:41.635Z,46.05
2023-02-14T10:52:19.326Z,46.63
2023-02-14T10:54:55.619Z,45.80
2023-02-14T10:57:33.393Z,45.83
2023-02-14T11:00:14.563Z,44.60
2023-02-14T11:02:47.893Z,44.75
2023-02-14T11:05:26.591Z,47.28
2023-02-14T11:07:56.493Z,45.60
2023-02-14T11:10:38.840Z,44.50
2023-02-14T11:13:28.319Z,44.58
2023-02-14T11:16:01.008Z,45.13
2023-02-14T11:18:32.984Z,44.83
2023-02-14T11:21:02.793Z,45.53
2023-02-14T11:23:35.265Z,43.63
2023-02-14T11:26:06.993Z,43.25
2023-02-14T11:28:36.427Z,44.08
2023-02-14T11:31:05.052Z,43.45
2023-02-14T11:33:40.826Z,44.67
2023-02-14T11:36:13.887Z,44.25
2023-02-14T11:38:44.016Z,43.20
2023-02-14T11:41:16.264Z,42.22
2023-02-14T11:43:48.581Z,42.55
2023-02-14T11:46:25.705Z,43.63
2023-02-14T11:48:59.298Z,41.22
2023-02-14T11:51:33.316Z,42.25
2023-02-14T11:54:05.156Z,42.10
2023-02-14T11:56:53.808Z,40.75
2023-02-14T11:59:31.842Z,41.72
2023-02-14T12:02:03.736Z,44.15
2023-02-14T12:04:46.091Z,40.33
2023-02-14T12:07:21.569Z,42.58
2023-02-14T12:09:54.954Z,40.60
2023-02-14T12:12:26.135Z,39.70
2023-02-14T12:15:07.041Z,40.00
2023-02-14T12:17:38.790Z,41.50
2023-02-14T12:20:13.202Z,41.90
2023-02-14T12:22:47.378Z,40.45
2023-02-14T12:25:18.364Z,41.00
2023-02-14T12:27:52.952Z,42.78
2023-02-14T12:30:23.611Z,39.85
2023-02-14T12:32:56.382Z,40.20
2023-02-14T12:35:44.746Z,39.85
2023-02-14T12:38:20.621Z,40.60
2023-02-14T12:41:03.357Z,40.38
2023-02-14T12:43:50.895Z,40.63
2023-02-14T12:46:41.402Z,39.53
2023-02-14T12:49:23.205Z,39.08
2023-02-14T12:52:01.237Z,40.10
2023-02-14T12:54:56.401Z,38.65
2023-02-14T12:57:41.505Z,37.00
2023-02-14T13:00:24.345Z,35.72
2023-02-14T13:03:20.603Z,36.42
2023-02-14T13:05:59.481Z,34.65
2023-02-14T13:08:42.891Z,32.53
2023-02-14T13:11:19.411Z,30.08
2023-02-14T13:14:04.429Z,31.00
2023-02-14T13:16:41.879Z,29.63
2023-02-14T13:19:25.738Z,29.30
2023-02-14T13:21:57.252Z,27.65
2023-02-14T13:24:30.945Z,28.85
2023-02-14T13:27:03.015Z,26.42
2023-02-14T13:29:36.216Z,24.88
2023-02-14T13:32:06.492Z,25.38
2023-02-14T13:34:39.691Z,25.30
2023-02-14T13:37:11.735Z,24.63
2023-02-14T13:39:44.259Z,21.27
2023-02-14T13:42:37.125Z,21.42
2023-02-14T13:45:06.584Z,21.55
2023-02-14T13:47:38.871Z,21.00
2023-02-14T13:50:19.617Z,21.30
2023-02-14T13:52:49.560Z,21.50
2023-02-14T13:55:20.286Z,21.70
2023-02-14T13:58:02.594Z,20.45
2023-02-14T14:00:39.593Z,20.73
2023-02-14T14:03:13.671Z,20.42
2023-02-14T14:06:06.767Z,20.13
2023-02-14T14:08:39.901Z,19.90
2023-02-14T14:11:12.895Z,20.52
2023-02-14T14:13:57.364Z,20.35
2023-02-14T14:16:35.082Z,20.92
2023-02-14T14:19:11.553Z,19.38
2023-02-14T14:21:43.567Z,19.48
2023-02-14T14:24:23.000Z,21.02
2023-02-14T14:26:53.032Z,20.45
2023-02-14T14:29:23.992Z,20.33
2023-02-14T14:31:55.942Z,19.70
2023-02-14T14:34:27.008Z,18.60
2023-02-14T14:37:03.508Z,18.98
2023-02-14T14:39:33.399Z,19.75
2023-02-14T14:42:09.691Z,18.65
2023-02-14T14:44:47.453Z,20.50
2023-02-14T14:47:20.328Z,19.17
2023-02-14T14:49:50.154Z,18.98
2023-02-14T14:52:36.342Z,19.55
2023-02-14T14:55:07.177Z,20.52
2023-02-14T14:57:41.127Z,19.27
2023-02-14T15:00:21.354Z,20.08
2023-02-14T15:03:05.757Z,20.48
2023-02-14T15:05:37.595Z,20.08
2023-02-14T15:08:22.018Z,21.25
2023-02-14T15:10:56.604Z,19.15
2023-02-14T15:13:50.509Z,20.35
2023-02-14T15:16:24.072Z,19.23
2023-02-14T15:18:54.074Z,20.45
2023-02-14T15:21:23.586Z,19.33
2023-02-14T15:23:52.932Z,21.13
2023-02-14T15:26:26.894Z,21.15
2023-02-14T15:28:59.665Z,20.80
2023-02-14T15:31:32.831Z,21.73
2023-02-14T15:34:02.964Z,20.20
2023-02-14T15:36:34.317Z,22.95
2023-02-14T15:39:07.256Z,21.83
2023-02-14T15:41:35.294Z,22.75
2023-02-14T15:44:03.963Z,23.58
2023-02-14T15:46:36.224Z,22.52
2023-02-14T15:49:09.838Z,21.10
2023-02-14T15:51:40.578Z,22.00
2023-02-14T15:54:20.721Z,23.10
2023-02-14T15:56:51.308Z,21.88
2023-02-14T15:59:21.541Z,21.50
2023-02-14T16:01:55.632Z,21.60
2023-02-14T16:04:25.431Z,20.80
2023-02-14T16:07:21.569Z,22.65
2023-02-14T16:09:50.351Z,22.27
2023-02-14T16:12:42.098Z,21.80
2023-02-14T16:15:23.121Z,22.42
2023-02-14T16:17:51.231Z,21.30
2023-02-14T16:20:41.408Z,21.38
2023-02-14T16:23:19.021Z,22.52
2023-02-14T16:25:47.236Z,22.33
2023-02-14T16:28:15.708Z,23.40
2023-02-14T16:30:45.555Z,23.90
2023-02-14T16:33:19.286Z,22.85
2023-02-14T16:35:47.750Z,24.27
2023-02-14T16:38:19.351Z,24.05
2023-02-14T16:40:51.262Z,23.10
2023-02-14T16:43:20.772Z,23.70
2023-02-14T16:45:49.171Z,22.85
2023-02-14T16:48:17.406Z,23.40
2023-02-14T16:50:46.606Z,24.58
2023-02-14T16:53:26.095Z,23.23
2023-02-14T16:55:56.308Z,25.17
2023-02-14T16:58:27.794Z,25.33
2023-02-14T17:00:55.991Z,25.80
2023-02-14T17:03:24.068Z,26.05
2023-02-14T17:05:52.483Z,23.70
2023-02-14T17:08:22.112Z,25.63
2023-02-14T17:10:50.683Z,25.75
2023-02-14T17:13:23.467Z,27.30
2023-02-14T17:15:52.306Z,27.42
2023-02-14T17:18:22.874Z,28.98
2023-02-14T17:20:51.053Z,28.17
2023-02-14T17:23:20.229Z,28.38
2023-02-14T17:25:49.763Z,28.10
2023-02-14T17:28:17.859Z,29.77
2023-02-14T17:30:47.505Z,33.17
2023-02-14T17:33:15.673Z,30.77
2023-02-14T17:35:43.677Z,30.02
2023-02-14T17:38:12.069Z,42.83
2023-02-14T17:40:40.222Z,46.33
2023-02-14T17:43:09.819Z,46.33
2023-02-14T17:45:38.227Z,47.42
2023-02-14T17:48:06.860Z,48.17
2023-02-14T17:50:34.984Z,50.38
2023-02-14T17:53:03.290Z,49.38
2023-02-14T17:55:33.444Z,50.80
2023-02-14T17:58:01.710Z,53.65
2023-02-14T18:00:34.082Z,51.90
2023-02-14T18:03:02.472Z,49.58
2023-02-14T18:05:30.851Z,52.85
2023-02-14T18:08:01.072Z,51.88
2023-02-14T18:10:29.697Z,49.53
2023-02-14T18:12:58.113Z,48.60
2023-02-14T18:15:27.491Z,50.78
2023-02-14T18:17:57.161Z,52.72
2023-02-14T18:20:28.557Z,50.92
2023-02-14T18:22:57.010Z,50.33
2023-02-14T18:25:28.308Z,55.13
2023-02-14T18:27:56.441Z,56.65
2023-02-14T18:30:24.536Z,56.22
2023-02-14T18:32:52.636Z,58.45
2023-02-14T18:35:22.229Z,57.00
2023-02-14T18:37:50.550Z,52.72
2023-02-14T18:40:20.439Z,55.92
2023-02-14T18:42:48.441Z,55.97
2023-02-14T18:45:16.630Z,56.30
2023-02-14T18:47:44.869Z,54.20
2023-02-14T18:50:13.246Z,56.80
2023-02-14T18:52:42.922Z,55.33
2023-02-14T18:55:11.087Z,59.15
2023-02-14T18:57:39.246Z,58.03
2023-02-14T19:00:12.106Z,55.55
2023-02-14T19:02:40.363Z,58.25
2023-02-14T19:05:09.697Z,58.22
2023-02-14T19:07:37.903Z,57.67
2023-02-14T19:10:08.660Z,58.55
2023-02-14T19:12:36.859Z,57.28
2023-02-14T19:15:06.117Z,59.90
2023-02-14T19:17:34.761Z,57.80
2023-02-14T19:20:08.395Z,59.13
2023-02-14T19:22:39.714Z,56.40
2023-02-14T19:25:10.089Z,55.72
2023-02-14T19:27:38.332Z,56.47
2023-02-14T19:30:07.589Z,60.65
2023-02-14T19:32:35.557Z,57.77
2023-02-14T19:35:03.506Z,59.38
2023-02-14T19:37:34.191Z,57.03
2023-02-14T19:40:02.262Z,58.20
2023-02-14T19:42:31.897Z,56.90
2023-02-14T19:44:59.988Z,60.30
2023-02-14T19:47:43.514Z,64.67
2023-02-14T19:50:14.696Z,63.38
2023-02-14T19:52:43.961Z,61.45
2023-02-14T19:55:21.266Z,60.83
2023-02-14T19:57:50.707Z,65.40
2023-02-14T20:00:20.938Z,62.90
2023-02-14T20:02:49.141Z,63.50
2023-02-14T20:05:17.862Z,65.43
2023-02-14T20:07:49.155Z,62.28
2023-02-14T20:10:17.484Z,60.33
2023-02-14T20:12:45.655Z,61.17
2023-02-14T20:15:15.368Z,58.33
2023-02-14T20:17:43.521Z,59.97
2023-02-14T20:20:13.861Z,58.37
2023-02-14T20:22:42.319Z,54.80
2023-02-14T20:25:11.240Z,50.60
2023-02-14T20:27:39.616Z,49.13
2023-02-14T20:30:10.162Z,49.97
2023-02-14T20:32:49.476Z,59.30
2023-02-14T20:35:17.694Z,56.30
2023-02-14T20:37:45.943Z,57.87
2023-02-14T20:40:14.254Z,53.20
2023-02-14T20:42:42.443Z,51.33
2023-02-14T20:48:07.044Z,54.10
2023-02-14T20:50:35.621Z,63.20
2023-02-14T20:53:03.788Z,64.90
2023-02-14T20:55:32.359Z,65.17
2023-02-14T20:58:02.395Z,60.67
2023-02-14T21:00:30.866Z,60.97
2023-02-14T21:02:59.900Z,55.80
2023-02-14T21:05:29.449Z,58.27
2023-02-14T21:07:57.395Z,54.33
2023-02-14T21:10:27.612Z,55.07
2023-02-14T21:12:55.679Z,57.70
2023-02-14T21:15:23.830Z,55.63
2023-02-14T21:17:51.980Z,52.43
2023-02-14T21:20:20.516Z,51.83
2023-02-14T21:22:49.877Z,63.83
2023-02-14T21:25:21.991Z,61.60
2023-02-14T21:27:51.330Z,63.70
2023-02-14T21:30:19.411Z,57.60
2023-02-14T21:32:47.545Z,57.93
2023-02-14T21:35:15.707Z,60.10
2023-02-14T21:37:43.709Z,61.00
2023-02-14T21:40:13.492Z,58.23
2023-02-14T21:42:41.586Z,56.83
2023-02-14T21:45:29.871Z,57.13
2023-02-14T21:48:15.240Z,54.07
2023-02-14T21:50:43.445Z,58.53
2023-02-14T21:53:11.371Z,58.87
2023-02-14T21:55:42.841Z,57.67
2023-02-14T21:58:11.854Z,54.97
2023-02-14T22:00:40.299Z,58.00
2023-02-14T22:03:08.317Z,59.07
2023-02-14T22:05:36.370Z,53.93
2023-02-14T22:08:04.574Z,49.97
2023-02-14T22:10:32.905Z,45.73
2023-02-14T22:13:03.886Z,50.80
2023-02-14T22:15:31.941Z,49.73
2023-02-14T22:18:00.003Z,50.43
2023-02-14T22:20:28.014Z,53.00
2023-02-14T22:22:56.394Z,58.23
2023-02-14T22:25:25.966Z,53.80
2023-02-14T22:27:54.211Z,53.33
2023-02-14T22:30:23.770Z,55.40
2023-02-14T22:32:51.784Z,54.63
2023-02-14T22:35:19.824Z,51.83
2023-02-14T22:37:47.907Z,53.23
2023-02-14T22:40:16.053Z,48.67
2023-02-14T22:42:44.215Z,53.50
2023-02-14T22:45:12.312Z,50.73
2023-02-14T22:47:41.871Z,52.70
2023-02-14T22:50:10.686Z,53.90
2023-02-14T22:52:39.140Z,51.37
2023-02-14T22:55:07.891Z,52.77
2023-02-14T22:57:35.928Z,51.63
2023-02-14T23:00:03.970Z,52.07
2023-02-14T23:02:32.046Z,54.57
2023-02-14T23:05:01.513Z,53.27
2023-02-14T23:07:29.653Z,55.93
2023-02-14T23:09:57.614Z,54.10
2023-02-14T23:12:39.632Z,55.33
2023-02-14T23:15:27.225Z,52.70
2023-02-14T23:18:12.671Z,53.80
2023-02-14T23:20:59.236Z,50.60
2023-02-14T23:23:31.685Z,52.97
2023-02-14T23:26:00.116Z,52.90
2023-02-14T23:28:28.229Z,50.70
2023-02-14T23:31:00.794Z,45.70
2023-02-14T23:33:28.748Z,46.37
2023-02-14T23:35:58.111Z,46.17
2023-02-14T23:38:26.032Z,47.90
2023-02-14T23:41:11.443Z,48.13
2023-02-14T23:43:39.666Z,48.30
2023-02-14T23:46:07.662Z,47.97
2023-02-14T23:48:36.233Z,48.03
2023-02-14T23:51:05.859Z,56.80
2023-02-14T23:53:33.970Z,54.33
2023-02-14T23:56:03.439Z,52.87
2023-02-14T23:58:31.899Z,58.60
